createdAt,value
2019-05-25T00:02:25.187Z,99514.16
2019-05-25T00:04:52.094Z,99508.47
2019-05-25T00:07:19.048Z,99507.19
2019-05-25T00:09:48.355Z,99506.62
2019-05-25T00:12:16.151Z,99507.27
2019-05-25T00:14:43.114Z,99510.33
2019-05-25T00:17:09.999Z,99505.43
2019-05-25T00:19:36.878Z,99508.84
2019-05-25T00:22:03.986Z,99508.09
2019-05-25T00:24:30.928Z,99506.80
2019-05-25T00:26:57.858Z,99507.53
2019-05-25T00:29:24.802Z,99497.84
2019-05-25T00:31:51.761Z,99500.33
2019-05-25T00:34:18.880Z,99494.34
2019-05-25T00:36:45.851Z,99499.13
2019-05-25T00:39:12.802Z,99498.68
2019-05-25T00:41:39.754Z,99493.30
2019-05-25T00:44:06.624Z,99492.38
2019-05-25T00:46:33.596Z,99490.36
2019-05-25T00:49:00.541Z,99488.83
2019-05-25T00:51:27.565Z,99487.28
2019-05-25T00:53:54.529Z,99491.51
2019-05-25T00:56:21.429Z,99489.77
2019-05-25T00:58:48.312Z,99490.61
2019-05-25T01:01:15.298Z,99501.65
2019-05-25T01:03:42.274Z,99497.78
2019-05-25T01:06:09.213Z,99496.30
2019-05-25T01:08:36.165Z,99492.77
2019-05-25T01:11:03.145Z,99493.66
2019-05-25T01:13:30.106Z,99497.34
2019-05-25T01:15:58.179Z,99503.71
2019-05-25T01:18:25.137Z,99505.56
2019-05-25T01:20:52.113Z,99498.56
2019-05-25T01:23:19.109Z,99499.77
2019-05-25T01:25:46.284Z,99508.50
2019-05-25T01:28:13.249Z,99518.64
2019-05-25T01:30:40.237Z,99516.66
2019-05-25T01:33:07.167Z,99514.75
2019-05-25T01:35:34.037Z,99512.63
2019-05-25T01:38:00.927Z,99511.34
2019-05-25T01:40:27.817Z,99507.53
2019-05-25T01:42:54.775Z,99513.38
2019-05-25T01:45:21.719Z,99516.83
2019-05-25T01:47:48.938Z,99519.50
2019-05-25T01:50:15.832Z,99520.59
2019-05-25T01:52:42.796Z,99517.25
2019-05-25T01:55:10.382Z,99522.73
2019-05-25T01:57:39.782Z,99521.61
2019-05-25T02:00:09.522Z,99519.11
2019-05-25T02:02:36.414Z,99515.94
2019-05-25T02:05:12.925Z,99516.87
2019-05-25T02:07:39.896Z,99524.80
2019-05-25T02:10:06.833Z,99519.41
2019-05-25T02:12:33.786Z,99521.30
2019-05-25T02:15:00.768Z,99518.81
2019-05-25T02:17:28.799Z,99518.08
2019-05-25T02:19:55.765Z,99518.36
2019-05-25T02:22:23.640Z,99520.38
2019-05-25T02:24:50.624Z,99520.17
2019-05-25T02:27:17.546Z,99525.09
2019-05-25T02:29:44.509Z,99521.17
2019-05-25T02:32:11.484Z,99527.08
2019-05-25T02:34:38.491Z,99524.36
2019-05-25T02:37:05.439Z,99522.48
2019-05-25T02:39:32.381Z,99525.88
2019-05-25T02:41:59.253Z,99526.69
2019-05-25T02:44:26.426Z,99526.32
2019-05-25T02:46:53.379Z,99522.09
2019-05-25T02:49:20.314Z,99530.56
2019-05-25T02:51:47.216Z,99524.38
2019-05-25T02:54:14.146Z,99532.68
2019-05-25T02:56:41.034Z,99530.56
2019-05-25T02:59:07.920Z,99531.84
2019-05-25T03:01:34.889Z,99539.64
2019-05-25T03:04:02.202Z,99540.48
2019-05-25T03:06:29.128Z,99541.48
2019-05-25T03:08:56.023Z,99540.86
2019-05-25T03:11:22.922Z,99540.10
2019-05-25T03:13:49.884Z,99546.18
2019-05-25T03:16:17.919Z,99548.80
2019-05-25T03:18:44.862Z,99547.38
2019-05-25T03:21:11.752Z,99550.94
2019-05-25T03:23:38.642Z,99549.80
2019-05-25T03:26:05.862Z,99548.74
2019-05-25T03:28:33.069Z,99553.77
2019-05-25T03:30:59.939Z,99554.02
2019-05-25T03:33:26.887Z,99554.53
2019-05-25T03:35:54.150Z,99560.20
2019-05-25T03:38:21.089Z,99563.17
2019-05-25T03:40:48.054Z,99561.37
2019-05-25T03:43:15.013Z,99563.44
2019-05-25T03:45:41.968Z,99558.81
2019-05-25T03:48:08.923Z,99562.42
2019-05-25T03:50:35.876Z,99568.84
2019-05-25T03:53:02.830Z,99566.37
2019-05-25T03:55:29.788Z,99567.03
2019-05-25T03:57:56.734Z,99575.36
2019-05-25T04:00:23.598Z,99573.90
2019-05-25T04:02:50.549Z,99576.38
2019-05-25T04:05:17.467Z,99573.87
2019-05-25T04:07:44.436Z,99580.26
2019-05-25T04:10:11.396Z,99570.28
2019-05-25T04:12:38.407Z,99574.02
2019-05-25T04:15:05.333Z,99571.98
2019-05-25T04:17:32.278Z,99576.30
2019-05-25T04:19:59.345Z,99580.00
2019-05-25T04:22:26.346Z,99581.27
2019-05-25T04:24:53.306Z,99589.47
2019-05-25T04:27:20.238Z,99587.94
2019-05-25T04:29:47.177Z,99598.53
2019-05-25T04:32:14.101Z,99594.61
2019-05-25T04:34:41.320Z,99588.92
2019-05-25T04:37:08.209Z,99587.52
2019-05-25T04:39:35.175Z,99591.71
2019-05-25T04:42:05.263Z,99594.98
2019-05-25T04:44:32.136Z,99594.29
2019-05-25T04:46:59.026Z,99596.83
2019-05-25T04:49:27.048Z,99593.41
2019-05-25T04:51:53.950Z,99601.56
2019-05-25T04:54:20.969Z,99600.43
2019-05-25T04:56:47.920Z,99605.20
2019-05-25T04:59:14.803Z,99607.47
2019-05-25T05:01:41.689Z,99608.23
2019-05-25T05:04:09.617Z,99610.64
2019-05-25T05:06:36.557Z,99612.32
2019-05-25T05:09:03.433Z,99614.73
2019-05-25T05:11:30.377Z,99620.61
2019-05-25T05:13:58.593Z,99615.27
2019-05-25T05:16:25.476Z,99621.94
2019-05-25T05:18:52.424Z,99621.68
2019-05-25T05:21:19.641Z,99623.19
2019-05-25T05:23:46.679Z,99623.10
2019-05-25T05:26:13.944Z,99623.20
2019-05-25T05:28:40.925Z,99627.55
2019-05-25T05:31:23.116Z,99630.63
2019-05-25T05:33:39.705Z,99633.87
2019-05-25T05:36:06.677Z,99630.35
2019-05-25T05:38:33.613Z,99638.95
2019-05-25T05:41:00.845Z,99646.06
2019-05-25T05:43:27.821Z,99646.24
2019-05-25T05:45:54.761Z,99651.30
2019-05-25T05:48:21.625Z,99651.69
2019-05-25T05:50:48.494Z,99651.14
2019-05-25T05:53:15.384Z,99649.70
2019-05-25T05:55:42.346Z,99652.46
2019-05-25T05:58:09.309Z,99654.06
2019-05-25T06:00:36.615Z,99657.27
2019-05-25T06:03:03.556Z,99654.31
2019-05-25T06:05:30.524Z,99659.84
2019-05-25T06:07:57.481Z,99670.56
2019-05-25T06:10:24.642Z,99671.08
2019-05-25T06:12:51.634Z,99669.11
2019-05-25T06:15:19.570Z,99670.11
2019-05-25T06:17:46.518Z,99672.04
2019-05-25T06:20:13.431Z,99669.68
2019-05-25T06:22:40.396Z,99677.67
2019-05-25T06:25:07.331Z,99675.86
2019-05-25T06:27:34.272Z,99681.08
2019-05-25T06:30:01.208Z,99671.70
2019-05-25T06:32:28.166Z,99678.27
2019-05-25T06:34:55.398Z,99679.55
2019-05-25T06:37:22.287Z,99677.11
2019-05-25T06:39:49.314Z,99680.89
2019-05-25T06:42:16.197Z,99675.98
2019-05-25T06:44:43.196Z,99677.41
2019-05-25T06:47:10.168Z,99675.70
2019-05-25T06:49:37.187Z,99681.86
2019-05-25T06:52:04.179Z,99677.77
2019-05-25T06:54:31.119Z,99687.76
2019-05-25T06:56:58.294Z,99687.43
2019-05-25T06:59:25.249Z,99696.20
2019-05-25T07:01:52.513Z,99706.44
2019-05-25T07:04:19.445Z,99701.05
2019-05-25T07:06:46.318Z,99703.63
2019-05-25T07:09:13.185Z,99711.97
2019-05-25T07:11:40.072Z,99706.82
2019-05-25T07:14:07.025Z,99715.59
2019-05-25T07:16:33.923Z,99719.66
2019-05-25T07:19:00.865Z,99724.98
2019-05-25T07:21:27.761Z,99721.23
2019-05-25T07:23:54.923Z,99726.34
2019-05-25T07:26:22.210Z,99725.59
2019-05-25T07:28:49.168Z,99725.99
2019-05-25T07:31:16.122Z,99726.48
2019-05-25T07:33:43.058Z,99732.22
2019-05-25T07:36:10.077Z,99736.83
2019-05-25T07:38:37.041Z,99737.48
2019-05-25T07:41:04.216Z,99733.20
2019-05-25T07:43:31.236Z,99737.41
2019-05-25T07:46:04.556Z,99737.91
2019-05-25T07:48:33.161Z,99734.42
2019-05-25T07:51:00.111Z,99746.23
2019-05-25T07:53:27.062Z,99740.11
2019-05-25T07:55:54.043Z,99740.69
2019-05-25T07:58:21.023Z,99736.66
2019-05-25T08:00:48.009Z,99742.84
2019-05-25T08:03:14.953Z,99743.84
2019-05-25T08:05:42.254Z,99744.80
2019-05-25T08:08:09.727Z,99753.47
2019-05-25T08:10:36.701Z,99755.17
2019-05-25T08:13:03.656Z,99748.91
2019-05-25T08:15:30.593Z,99748.38
2019-05-25T08:17:58.559Z,99747.67
2019-05-25T08:20:25.545Z,99753.97
2019-05-25T08:22:52.773Z,99759.70
2019-05-25T08:25:20.181Z,99752.75
2019-05-25T08:27:47.062Z,99752.38
2019-05-25T08:30:13.932Z,99749.87
2019-05-25T08:32:42.533Z,99754.98
2019-05-25T08:35:09.505Z,99742.53
2019-05-25T08:37:36.563Z,99747.22
2019-05-25T08:40:03.487Z,99741.30
2019-05-25T08:42:30.399Z,99753.72
2019-05-25T08:44:57.353Z,99741.62
2019-05-25T08:47:24.303Z,99741.61
2019-05-25T08:49:51.257Z,99743.38
2019-05-25T08:52:18.249Z,99748.19
2019-05-25T08:54:45.225Z,99734.67
2019-05-25T08:57:16.181Z,99739.70
2019-05-25T08:59:40.723Z,99751.28
2019-05-25T09:02:07.657Z,99748.86
2019-05-25T09:04:34.650Z,99744.68
2019-05-25T09:07:01.544Z,99739.82
2019-05-25T09:09:29.632Z,99743.44
2019-05-25T09:11:56.533Z,99748.23
2019-05-25T09:14:23.747Z,99748.30
2019-05-25T09:16:50.949Z,99752.30
2019-05-25T09:19:18.489Z,99757.56
2019-05-25T09:22:01.534Z,99759.64
2019-05-25T09:24:15.947Z,99760.48
2019-05-25T09:26:42.909Z,99761.62
2019-05-25T09:29:09.785Z,99762.00
2019-05-25T09:31:36.745Z,99764.22
2019-05-25T09:34:04.026Z,99750.45
2019-05-25T09:36:30.972Z,99753.55
2019-05-25T09:38:57.845Z,99762.75
2019-05-25T09:41:24.740Z,99760.64
2019-05-25T09:43:51.696Z,99746.72
2019-05-25T09:46:18.728Z,99752.74
2019-05-25T09:48:46.365Z,99750.16
2019-05-25T09:51:16.361Z,99746.09
2019-05-25T09:53:42.029Z,99749.57
2019-05-25T09:56:09.473Z,99753.08
2019-05-25T09:58:36.348Z,99758.91
2019-05-25T10:01:03.240Z,99761.23
2019-05-25T10:03:31.426Z,99761.09
2019-05-25T10:05:58.473Z,99766.84
2019-05-25T10:08:27.691Z,99755.38
2019-05-25T10:10:54.703Z,99755.03
2019-05-25T10:13:21.685Z,99760.04
2019-05-25T10:15:48.954Z,99759.41
2019-05-25T10:18:15.841Z,99756.25
2019-05-25T10:20:43.075Z,99759.83
2019-05-25T10:23:11.374Z,99760.91
2019-05-25T10:25:39.137Z,99753.14
2019-05-25T10:28:06.191Z,99755.38
2019-05-25T10:30:33.054Z,99750.50
2019-05-25T10:32:59.935Z,99751.63
2019-05-25T10:35:26.900Z,99753.52
2019-05-25T10:37:53.863Z,99751.63
2019-05-25T10:40:20.841Z,99749.52
2019-05-25T10:42:47.774Z,99750.65
2019-05-25T10:45:15.690Z,99744.38
2019-05-25T10:47:42.642Z,99749.00
2019-05-25T10:50:09.966Z,99748.05
2019-05-25T10:52:37.076Z,99744.79
2019-05-25T10:55:04.012Z,99740.55
2019-05-25T10:57:31.015Z,99741.78
2019-05-25T10:59:58.301Z,99743.03
2019-05-25T11:02:25.282Z,99743.14
2019-05-25T11:04:52.709Z,99735.47
2019-05-25T11:07:19.735Z,99732.38
2019-05-25T11:09:47.004Z,99729.69
2019-05-25T11:12:13.976Z,99730.88
2019-05-25T11:14:41.227Z,99735.85
2019-05-25T11:17:08.214Z,99730.31
2019-05-25T11:19:35.233Z,99728.56
2019-05-25T11:22:02.110Z,99726.07
2019-05-25T11:24:29.386Z,99726.42
2019-05-25T11:26:59.580Z,99726.07
2019-05-25T11:29:24.849Z,99726.78
2019-05-25T11:31:56.459Z,99722.53
2019-05-25T11:34:20.409Z,99724.92
2019-05-25T11:36:47.322Z,99720.19
2019-05-25T11:39:14.275Z,99717.13
2019-05-25T11:41:41.629Z,99724.92
2019-05-25T11:44:08.575Z,99727.41
2019-05-25T11:46:35.624Z,99725.30
2019-05-25T11:49:02.589Z,99720.19
2019-05-25T11:51:29.533Z,99722.11
2019-05-25T11:53:56.481Z,99724.50
2019-05-25T11:56:23.432Z,99723.30
2019-05-25T11:58:50.301Z,99720.81
2019-05-25T12:01:17.187Z,99717.88
2019-05-25T12:03:44.076Z,99722.01
2019-05-25T12:06:10.933Z,99721.34
2019-05-25T12:08:37.945Z,99722.28
2019-05-25T12:11:05.245Z,99719.09
2019-05-25T12:13:32.482Z,99720.47
2019-05-25T12:15:59.374Z,99716.19
2019-05-25T12:18:26.618Z,99715.95
2019-05-25T12:20:53.611Z,99721.75
2019-05-25T12:23:20.670Z,99720.45
2019-05-25T12:25:47.632Z,99715.52
2019-05-25T12:28:14.981Z,99719.48
2019-05-25T12:30:41.893Z,99721.87
2019-05-25T12:33:08.785Z,99718.50
2019-05-25T12:35:35.758Z,99724.00
2019-05-25T12:38:02.811Z,99722.84
2019-05-25T12:40:29.682Z,99713.42
2019-05-25T12:42:56.895Z,99713.66
2019-05-25T12:45:23.842Z,99715.80
2019-05-25T12:47:51.109Z,99711.70
2019-05-25T12:50:18.075Z,99707.70
2019-05-25T12:52:44.938Z,99706.86
2019-05-25T12:55:12.072Z,99708.89
2019-05-25T12:57:39.041Z,99703.39
2019-05-25T13:00:15.621Z,99710.23
2019-05-25T13:02:34.582Z,99706.55
2019-05-25T13:05:01.617Z,99704.73
2019-05-25T13:07:29.523Z,99708.83
2019-05-25T13:09:56.912Z,99709.21
2019-05-25T13:12:23.852Z,99713.81
2019-05-25T13:14:51.674Z,99705.67
2019-05-25T13:17:18.623Z,99704.73
2019-05-25T13:19:45.654Z,99703.61
2019-05-25T13:22:12.561Z,99698.06
2019-05-25T13:24:39.533Z,99689.91
2019-05-25T13:27:06.462Z,99690.11
2019-05-25T13:29:33.413Z,99690.46
2019-05-25T13:32:00.691Z,99696.70
2019-05-25T13:34:27.620Z,99691.52
2019-05-25T13:36:54.553Z,99693.55
2019-05-25T13:39:21.516Z,99690.22
2019-05-25T13:41:48.930Z,99688.08
2019-05-25T13:44:15.892Z,99684.68
2019-05-25T13:46:43.526Z,99689.97
2019-05-25T13:49:10.453Z,99691.52
2019-05-25T13:51:37.383Z,99692.88
2019-05-25T13:54:04.328Z,99694.53
2019-05-25T13:56:31.283Z,99694.42
2019-05-25T13:58:58.263Z,99690.31
2019-05-25T14:01:28.345Z,99695.96
2019-05-25T14:03:55.850Z,99697.26
2019-05-25T14:06:22.778Z,99703.64
2019-05-25T14:08:49.737Z,99697.64
2019-05-25T14:11:16.673Z,99704.13
2019-05-25T14:13:43.578Z,99701.04
2019-05-25T14:16:10.469Z,99707.63
2019-05-25T14:18:37.448Z,99706.23
2019-05-25T14:21:04.442Z,99704.27
2019-05-25T14:23:32.564Z,99696.97
2019-05-25T14:25:59.521Z,99702.23
2019-05-25T14:28:26.396Z,99694.83
2019-05-25T14:30:53.365Z,99697.99
2019-05-25T14:33:20.260Z,99697.05
2019-05-25T14:35:47.213Z,99697.53
2019-05-25T14:38:14.078Z,99686.88
2019-05-25T14:40:40.950Z,99691.16
2019-05-25T14:43:08.250Z,99689.02
2019-05-25T14:45:35.139Z,99686.18
2019-05-25T14:48:02.106Z,99682.75
2019-05-25T14:50:29.579Z,99687.27
2019-05-25T14:52:56.534Z,99685.19
2019-05-25T14:55:23.411Z,99685.67
2019-05-25T14:57:50.693Z,99688.09
2019-05-25T15:00:17.819Z,99683.25
2019-05-25T15:02:44.761Z,99688.09
2019-05-25T15:05:11.734Z,99681.22
2019-05-25T15:07:39.058Z,99680.48
2019-05-25T15:10:06.535Z,99678.11
2019-05-25T15:12:35.098Z,99677.41
2019-05-25T15:15:02.062Z,99681.30
2019-05-25T15:17:28.946Z,99676.35
2019-05-25T15:19:56.898Z,99684.03
2019-05-25T15:22:23.915Z,99677.41
2019-05-25T15:24:50.793Z,99673.03
2019-05-25T15:27:17.777Z,99675.52
2019-05-25T15:29:44.641Z,99680.00
2019-05-25T15:32:19.875Z,99678.19
2019-05-25T15:34:40.136Z,99672.61
2019-05-25T15:37:07.113Z,99676.72
2019-05-25T15:39:34.139Z,99677.88
2019-05-25T15:42:01.172Z,99682.50
2019-05-25T15:44:28.301Z,99678.23
2019-05-25T15:46:55.682Z,99683.63
2019-05-25T15:49:32.471Z,99679.39
2019-05-25T15:51:51.217Z,99674.80
2019-05-25T15:54:18.104Z,99668.42
2019-05-25T15:56:45.363Z,99676.58
2019-05-25T15:59:12.325Z,99671.39
2019-05-25T16:01:39.279Z,99669.47
2019-05-25T16:04:06.149Z,99669.33
2019-05-25T16:06:33.021Z,99673.68
2019-05-25T16:09:01.267Z,99671.19
2019-05-25T16:11:31.945Z,99670.56
2019-05-25T16:13:58.725Z,99674.09
2019-05-25T16:16:30.177Z,99671.72
2019-05-25T16:18:55.158Z,99665.13
2019-05-25T16:21:22.488Z,99658.33
2019-05-25T16:23:49.464Z,99656.44
2019-05-25T16:26:16.408Z,99664.22
2019-05-25T16:28:43.376Z,99661.16
2019-05-25T16:31:10.279Z,99655.06
2019-05-25T16:33:37.298Z,99653.77
2019-05-25T16:36:04.511Z,99653.39
2019-05-25T16:38:31.491Z,99657.73
2019-05-25T16:40:58.434Z,99659.14
2019-05-25T16:43:25.402Z,99664.95
2019-05-25T16:45:52.396Z,99665.58
2019-05-25T16:48:19.378Z,99663.30
2019-05-25T16:50:46.322Z,99659.24
2019-05-25T16:53:13.198Z,99657.48
2019-05-25T16:55:40.417Z,99662.56
2019-05-25T16:58:07.374Z,99670.56
2019-05-25T17:00:34.328Z,99679.53
2019-05-25T17:03:01.297Z,99679.88
2019-05-25T17:05:28.228Z,99687.06
2019-05-25T17:07:55.202Z,99682.09
2019-05-25T17:10:22.113Z,99680.30
2019-05-25T17:12:49.096Z,99682.90
2019-05-25T17:15:16.437Z,99686.79
2019-05-25T17:17:43.447Z,99685.98
2019-05-25T17:20:10.418Z,99688.75
2019-05-25T17:22:37.379Z,99697.13
2019-05-25T17:25:04.281Z,99698.03
2019-05-25T17:27:31.357Z,99693.06
2019-05-25T17:29:58.326Z,99694.35
2019-05-25T17:32:25.281Z,99697.50
2019-05-25T17:34:52.423Z,99696.21
2019-05-25T17:37:19.527Z,99691.59
2019-05-25T17:39:46.533Z,99691.03
2019-05-25T17:42:13.475Z,99693.69
2019-05-25T17:44:40.456Z,99697.58
2019-05-25T17:47:07.425Z,99701.22
2019-05-25T17:49:34.417Z,99698.94
2019-05-25T17:52:01.395Z,99700.79
2019-05-25T17:54:28.426Z,99692.17
2019-05-25T17:56:55.624Z,99693.12
2019-05-25T17:59:23.634Z,99689.33
2019-05-25T18:01:50.523Z,99690.28
2019-05-25T18:04:17.421Z,99692.23
2019-05-25T18:06:47.197Z,99697.88
2019-05-25T18:09:14.433Z,99695.77
2019-05-25T18:11:41.582Z,99696.13
2019-05-25T18:14:08.461Z,99696.33
2019-05-25T18:16:35.327Z,99695.13
2019-05-25T18:19:02.344Z,99698.64
2019-05-25T18:21:29.260Z,99701.82
2019-05-25T18:23:56.133Z,99707.11
2019-05-25T18:26:22.998Z,99705.27
2019-05-25T18:28:49.887Z,99707.12
2019-05-25T18:31:16.909Z,99701.20
2019-05-25T18:33:43.863Z,99708.62
2019-05-25T18:36:11.148Z,99710.58
2019-05-25T18:38:38.104Z,99711.52
2019-05-25T18:41:05.128Z,99714.21
2019-05-25T18:43:32.023Z,99708.64
2019-05-25T18:45:58.978Z,99715.96
2019-05-25T18:48:26.176Z,99715.12
2019-05-25T18:50:53.076Z,99718.95
2019-05-25T18:53:20.271Z,99718.69
2019-05-25T18:55:47.413Z,99717.30
2019-05-25T18:58:14.298Z,99709.83
2019-05-25T19:00:41.212Z,99714.01
2019-05-25T19:03:08.135Z,99712.86
2019-05-25T19:05:36.106Z,99708.45
2019-05-25T19:08:04.311Z,99714.47
2019-05-25T19:10:31.366Z,99713.43
2019-05-25T19:12:58.865Z,99722.23
2019-05-25T19:15:25.837Z,99724.27
2019-05-25T19:17:52.795Z,99721.28
2019-05-25T19:20:21.233Z,99726.58
2019-05-25T19:22:48.509Z,99729.52
2019-05-25T19:25:15.401Z,99728.80
2019-05-25T19:27:42.334Z,99725.65
2019-05-25T19:30:09.222Z,99730.73
2019-05-25T19:32:37.646Z,99735.25
2019-05-25T19:35:04.540Z,99737.91
2019-05-25T19:37:31.782Z,99739.12
2019-05-25T19:39:58.783Z,99745.59
2019-05-25T19:42:25.732Z,99747.42
2019-05-25T19:44:52.643Z,99751.41
2019-05-25T19:47:19.581Z,99750.59
2019-05-25T19:49:46.441Z,99756.03
2019-05-25T19:52:13.323Z,99758.05
2019-05-25T19:54:40.561Z,99762.12
2019-05-25T19:57:07.835Z,99760.56
2019-05-25T19:59:34.917Z,99762.75
2019-05-25T20:02:02.119Z,99772.92
2019-05-25T20:04:28.983Z,99765.53
2019-05-25T20:06:55.905Z,99769.20
2019-05-25T20:09:22.868Z,99776.34
2019-05-25T20:11:49.828Z,99777.07
2019-05-25T20:14:17.878Z,99779.84
2019-05-25T20:16:44.915Z,99781.31
2019-05-25T20:19:13.194Z,99783.17
2019-05-25T20:21:40.112Z,99786.84
2019-05-25T20:24:07.088Z,99796.05
2019-05-25T20:26:34.077Z,99795.03
2019-05-25T20:29:01.087Z,99794.81
2019-05-25T20:31:28.089Z,99798.05
2019-05-25T20:33:55.015Z,99803.76
2019-05-25T20:36:22.000Z,99811.12
2019-05-25T20:38:48.955Z,99817.20
2019-05-25T20:41:16.668Z,99815.19
2019-05-25T20:43:43.611Z,99816.66
2019-05-25T20:46:11.552Z,99823.55
2019-05-25T20:48:38.519Z,99820.83
2019-05-25T20:51:05.573Z,99825.22
2019-05-25T20:53:32.532Z,99831.33
2019-05-25T20:55:59.486Z,99829.02
2019-05-25T20:58:26.345Z,99829.72
2019-05-25T21:00:53.221Z,99829.36
2019-05-25T21:03:20.187Z,99837.31
2019-05-25T21:05:50.707Z,99830.14
2019-05-25T21:08:15.817Z,99836.20
2019-05-25T21:10:42.714Z,99837.30
2019-05-25T21:13:09.583Z,99835.56
2019-05-25T21:15:36.537Z,99846.56
2019-05-25T21:18:03.800Z,99846.20
2019-05-25T21:20:32.226Z,99854.02
2019-05-25T21:22:59.139Z,99854.98
2019-05-25T21:25:26.112Z,99854.38
2019-05-25T21:27:53.425Z,99862.52
2019-05-25T21:30:20.421Z,99865.98
2019-05-25T21:32:47.341Z,99864.38
2019-05-25T21:35:14.269Z,99862.17
2019-05-25T21:37:41.503Z,99875.83
2019-05-25T21:40:08.484Z,99877.20
2019-05-25T21:42:36.833Z,99880.47
2019-05-25T21:45:04.774Z,99883.52
2019-05-25T21:47:31.661Z,99885.41
2019-05-25T21:49:58.586Z,99883.44
2019-05-25T21:52:25.492Z,99895.89
2019-05-25T21:54:52.463Z,99895.81
2019-05-25T21:57:19.426Z,99898.31
2019-05-25T21:59:46.360Z,99899.68
2019-05-25T22:02:13.245Z,99904.23
2019-05-25T22:04:40.496Z,99909.45
2019-05-25T22:07:07.462Z,99904.23
2019-05-25T22:09:34.777Z,99899.51
2019-05-25T22:12:01.672Z,99901.13
2019-05-25T22:14:28.537Z,99902.25
2019-05-25T22:16:55.421Z,99909.15
2019-05-25T22:19:22.313Z,99909.14
2019-05-25T22:21:49.267Z,99912.88
2019-05-25T22:24:16.213Z,99909.83
2019-05-25T22:26:43.378Z,99908.59
2019-05-25T22:29:10.248Z,99904.78
2019-05-25T22:31:37.121Z,99899.82
2019-05-25T22:34:04.010Z,99904.23
2019-05-25T22:36:40.147Z,99900.05
2019-05-25T22:38:59.843Z,99897.47
2019-05-25T22:41:26.713Z,99898.83
2019-05-25T22:43:53.600Z,99897.39
2019-05-25T22:46:20.808Z,99901.11
2019-05-25T22:48:47.779Z,99905.12
2019-05-25T22:51:14.739Z,99902.70
2019-05-25T22:53:41.672Z,99899.75
2019-05-25T22:56:08.618Z,99899.50
2019-05-25T22:58:35.836Z,99905.42
2019-05-25T23:01:02.740Z,99900.61
2019-05-25T23:03:29.660Z,99895.45
2019-05-25T23:05:56.606Z,99898.17
2019-05-25T23:08:23.493Z,99901.52
2019-05-25T23:10:50.366Z,99897.88
2019-05-25T23:13:17.277Z,99900.53
2019-05-25T23:15:44.236Z,99906.83
2019-05-25T23:18:11.185Z,99903.77
2019-05-25T23:20:38.078Z,99905.57
2019-05-25T23:23:05.047Z,99908.22
2019-05-25T23:25:32.003Z,99907.84
2019-05-25T23:27:58.981Z,99908.73
2019-05-25T23:30:26.009Z,99909.87
2019-05-25T23:32:52.917Z,99900.67
2019-05-25T23:35:20.745Z,99901.89
2019-05-25T23:37:47.640Z,99911.42
2019-05-25T23:40:14.577Z,99910.23
2019-05-25T23:42:41.442Z,99909.75
2019-05-25T23:45:09.398Z,99902.57
2019-05-25T23:47:36.340Z,99902.94
2019-05-25T23:50:03.318Z,99902.94
2019-05-25T23:52:30.252Z,99897.42
2019-05-25T23:54:57.149Z,99893.48
2019-05-25T23:57:24.082Z,99895.21
2019-05-25T23:59:51.533Z,99893.16
